Time,TemperatureF,DewpointF,PressureIn,WindDirection,WindDirectionDegrees,WindSpeedMPH,WindSpeedGustMPH,Humidity,HourlyPrecipIn,Conditions,Clouds,dailyrainin,SoftwareType,DateUTC
2013-03-20 00:00:00,33.0,28.0,29.83,WSW,245,0.0,0.0,82,0.00,,FEW080,0.00,VWS V14.00,2013-03-20 04:00:00,
2013-03-20 00:03:00,33.5,23.2,29.79,SW,221,0.0,10.5,65,0.00,,BKN200,0.00,VWS V14.00,2013-03-20 04:03:00,
2013-03-20 00:04:00,33.4,23.5,29.80,SW,229,0.0,10.5,67,0.00,,SCT200,0.00,VWS V14.00,2013-03-20 04:04:00,
2013-03-20 00:06:00,33.2,23.5,29.80,SW,229,0.0,10.5,67,0.00,,SCT200,0.00,VWS V14.00,2013-03-20 04:06:00,
2013-03-20 00:07:00,33.2,23.7,29.80,SW,229,0.0,10.5,68,0.00,,SCT200,0.00,VWS V14.00,2013-03-20 04:07:00,
2013-03-20 00:08:00,33.1,23.4,29.80,SW,229,0.0,10.5,67,0.00,,SCT200,0.00,VWS V14.00,2013-03-20 04:08:00,
2013-03-20 00:09:00,33.2,23.1,29.80,SW,229,0.0,10.5,66,0.00,,SCT200,0.00,VWS V14.00,2013-03-20 04:09:00,
2013-03-20 00:10:00,33.2,23.1,29.80,SW,229,0.0,10.5,66,0.00,,SCT200,0.00,VWS V14.00,2013-03-20 04:10:00,
2013-03-20 00:12:00,33.0,23.7,29.80,South,190,0.0,9.9,68,0.00,,SCT200,0.00,VWS V14.00,2013-03-20 04:12:00,
2013-03-20 00:13:00,32.9,22.9,29.80,South,190,0.0,9.9,66,0.00,,SCT200,0.00,VWS V14.00,2013-03-20 04:13:00,
2013-03-20 00:14:00,34.6,26.2,29.79,SSW,194,0.0,7.9,71,0.00,,BKN200,0.00,VWS V14.00,2013-03-20 04:14:00,
2013-03-20 00:16:00,33.0,23.4,29.80,South,190,0.0,9.9,67,0.00,,SCT200,0.00,VWS V14.00,2013-03-20 04:16:00,
2013-03-20 00:19:00,34.4,25.9,29.79,SSW,194,0.0,7.9,71,0.00,,BKN200,0.00,VWS V14.00,2013-03-20 04:19:00,
2013-03-20 00:24:00,34.2,25.2,29.79,SSW,194,0.0,8.4,69,0.00,,BKN200,0.00,VWS V14.00,2013-03-20 04:24:00,
2013-03-20 00:29:00,34.0,24.7,29.79,WSW,249,0.0,8.4,68,0.00,,BKN200,0.00,VWS V14.00,2013-03-20 04:29:00,
2013-03-20 00:35:00,34.1,25.0,29.79,WNW,300,0.0,9.6,69,0.00,,BKN200,0.00,VWS V14.00,2013-03-20 04:35:00,
2013-03-20 00:40:00,34.0,24.6,29.80,SW,219,0.0,9.6,68,0.00,,BKN200,0.00,VWS V14.00,2013-03-20 04:40:00,
2013-03-20 00:45:00,33.9,24.7,29.79,SSW,204,0.0,11.6,69,0.00,,BKN200,0.00,VWS V14.00,2013-03-20 04:45:00,
2013-03-20 00:50:00,33.6,24.0,29.80,WSW,242,0.0,11.6,68,0.00,,BKN200,0.00,VWS V14.00,2013-03-20 04:50:00,
2013-03-20 00:55:00,33.6,23.4,29.80,WSW,248,9.1,9.1,66,0.00,,BKN200,0.00,VWS V14.00,2013-03-20 04:55:00,
2013-03-20 01:00:00,33.4,23.2,29.79,SW,221,0.0,10.5,66,0.00,,BKN200,0.00,VWS V14.00,2013-03-20 05:00:00,
2013-03-20 01:05:00,33.4,23.4,29.80,SW,229,0.0,10.5,66,0.00,,SCT200,0.00,VWS V14.00,2013-03-20 05:05:00,
2013-03-20 01:10:00,33.2,23.1,29.80,SW,229,0.0,10.5,66,0.00,,SCT200,0.00,VWS V14.00,2013-03-20 05:10:00,
2013-03-20 01:15:00,33.0,22.9,29.80,South,190,0.0,9.9,66,0.00,,SCT200,0.00,VWS V14.00,2013-03-20 05:15:00,
2013-03-20 01:20:00,33.0,23.3,29.80,South,190,0.0,9.9,67,0.00,,SCT200,0.00,VWS V14.00,2013-03-20 05:20:00,
2013-03-20 01:26:00,32.8,23.6,29.81,WSW,242,0.0,9.1,68,0.00,,SCT200,0.00,VWS V14.00,2013-03-20 05:26:00,
2013-03-20 01:31:00,32.6,23.0,29.81,WSW,246,4.3,5.7,67,0.00,,SCT200,0.00,VWS V14.00,2013-03-20 05:31:00,
2013-03-20 01:37:00,32.8,23.0,29.81,West,259,0.0,6.0,67,0.00,,SCT200,0.00,VWS V14.00,2013-03-20 05:37:00,
2013-03-20 01:42:00,32.8,23.1,29.81,West,281,0.0,3.2,67,0.00,,SCT200,0.00,VWS V14.00,2013-03-20 05:42:00,
2013-03-20 01:47:00,32.6,23.0,29.81,WNW,294,0.0,9.6,67,0.00,,SCT200,0.00,VWS V14.00,2013-03-20 05:47:00,
2013-03-20 01:52:00,32.5,23.8,29.82,WNW,294,0.0,0.0,70,0.00,,SCT200,0.00,VWS V14.00,2013-03-20 05:52:00,
2013-03-20 01:57:00,32.3,23.5,29.82,WNW,294,0.0,0.0,70,0.00,,SCT200,0.00,VWS V14.00,2013-03-20 05:57:00,
2013-03-20 02:02:00,31.9,23.0,29.82,SSW,210,0.0,4.5,69,0.00,,SCT200,0.00,VWS V14.00,2013-03-20 06:02:00,
2013-03-20 02:07:00,32.0,23.7,29.82,SSW,210,0.0,4.5,71,0.00,,FEW200,0.00,VWS V14.00,2013-03-20 06:07:00,
2013-03-20 02:12:00,31.8,23.3,29.82,SSW,208,0.0,6.1,70,0.00,,FEW200,0.00,VWS V14.00,2013-03-20 06:12:00,
2013-03-20 02:18:00,31.8,23.4,29.82,SSW,208,0.0,6.1,71,0.00,,FEW200,0.00,VWS V14.00,2013-03-20 06:18:00,
2013-03-20 02:23:00,31.8,23.5,29.82,SSW,208,0.0,0.0,71,0.00,,FEW200,0.00,VWS V14.00,2013-03-20 06:23:00,
2013-03-20 02:28:00,31.6,23.4,29.82,SSW,208,0.0,0.0,71,0.00,,FEW200,0.00,VWS V14.00,2013-03-20 06:28:00,
2013-03-20 02:33:00,31.7,23.5,29.82,SSW,208,0.0,0.0,71,0.00,,FEW200,0.00,VWS V14.00,2013-03-20 06:33:00,
2013-03-20 02:38:00,31.6,24.2,29.82,SSW,208,0.0,0.0,74,0.00,,FEW200,0.00,VWS V14.00,2013-03-20 06:38:00,
2013-03-20 02:43:00,31.3,23.6,29.82,SSW,208,0.0,0.0,73,0.00,,FEW200,0.00,VWS V14.00,2013-03-20 06:43:00,
2013-03-20 02:48:00,31.2,23.6,29.82,SSW,208,0.0,0.0,73,0.00,,FEW200,0.00,VWS V14.00,2013-03-20 06:48:00,
2013-03-20 02:53:00,31.1,23.5,29.83,West,273,0.0,6.3,73,0.00,,FEW200,0.00,VWS V14.00,2013-03-20 06:53:00,
2013-03-20 02:58:00,31.2,23.4,29.82,West,273,0.0,6.3,73,0.00,,FEW200,0.00,VWS V14.00,2013-03-20 06:58:00,
2013-03-20 03:03:00,31.0,23.5,29.83,West,273,0.0,0.0,74,0.00,,FEW200,0.00,VWS V14.00,2013-03-20 07:03:00,
2013-03-20 03:08:00,31.0,23.5,29.82,WSW,253,0.0,6.2,73,0.00,,SCT250,0.00,VWS V14.00,2013-03-20 07:08:00,
2013-03-20 03:13:00,31.0,23.3,29.83,West,266,3.0,4.8,73,0.00,,SCT250,0.00,VWS V14.00,2013-03-20 07:13:00,
2013-03-20 03:18:00,31.0,23.2,29.82,SSW,194,0.0,6.8,72,0.00,,SCT250,0.00,VWS V14.00,2013-03-20 07:18:00,
2013-03-20 03:23:00,31.1,23.2,29.83,West,269,0.0,6.9,72,0.00,,SCT250,0.00,VWS V14.00,2013-03-20 07:23:00,
2013-03-20 03:28:00,30.9,23.4,29.83,WNW,292,0.0,6.9,74,0.00,,SCT250,0.00,VWS V14.00,2013-03-20 07:28:00,
2013-03-20 03:33:00,30.7,23.2,29.83,West,271,7.0,7.0,74,0.00,,SCT250,0.00,VWS V14.00,2013-03-20 07:33:00,
2013-03-20 03:38:00,30.7,22.9,29.83,WNW,294,0.0,7.4,72,0.00,,SCT250,0.00,VWS V14.00,2013-03-20 07:38:00,
2013-03-20 03:43:00,30.7,22.7,29.83,WSW,240,5.2,9.4,72,0.00,,SCT250,0.00,VWS V14.00,2013-03-20 07:43:00,
2013-03-20 03:48:00,30.7,22.7,29.83,West,267,0.0,9.4,72,0.00,,SCT250,0.00,VWS V14.00,2013-03-20 07:48:00,
2013-03-20 03:54:00,30.7,22.7,29.83,WSW,257,0.0,0.0,72,0.00,,SCT250,0.00,VWS V14.00,2013-03-20 07:54:00,
2013-03-20 03:59:00,30.7,22.8,29.84,WSW,257,0.0,0.0,72,0.00,,SCT250,0.00,VWS V14.00,2013-03-20 07:59:00,
2013-03-20 04:04:00,30.4,23.0,29.83,WSW,257,0.0,0.0,74,0.00,,BKN150,0.00,VWS V14.00,2013-03-20 08:04:00,
2013-03-20 04:09:00,30.2,22.7,29.84,WSW,257,0.0,0.0,73,0.00,,BKN150,0.00,VWS V14.00,2013-03-20 08:09:00,
2013-03-20 04:14:00,29.9,22.4,29.84,SSW,207,0.0,6.1,73,0.00,,BKN150,0.00,VWS V14.00,2013-03-20 08:14:00,
2013-03-20 04:19:00,29.9,22.2,29.84,WNW,290,0.0,6.1,73,0.00,,BKN150,0.00,VWS V14.00,2013-03-20 08:19:00,
2013-03-20 04:24:00,29.9,22.4,29.84,West,260,0.0,6.3,73,0.00,,BKN150,0.00,VWS V14.00,2013-03-20 08:24:00,
2013-03-20 04:29:00,29.9,22.5,29.84,West,260,0.0,6.3,74,0.00,,BKN150,0.00,VWS V14.00,2013-03-20 08:29:00,
2013-03-20 04:34:00,29.9,22.4,29.84,SW,222,0.0,7.1,73,0.00,,BKN150,0.00,VWS V14.00,2013-03-20 08:34:00,
2013-03-20 04:39:00,29.8,22.5,29.84,SW,222,0.0,7.1,74,0.00,,BKN150,0.00,VWS V14.00,2013-03-20 08:39:00,
2013-03-20 04:44:00,29.7,22.8,29.84,SW,222,0.0,0.0,75,0.00,,BKN150,0.00,VWS V14.00,2013-03-20 08:44:00,
2013-03-20 04:49:00,29.5,22.8,29.84,SW,222,0.0,0.0,76,0.00,,BKN150,0.00,VWS V14.00,2013-03-20 08:49:00,
2013-03-20 04:54:00,29.1,22.7,29.84,SW,218,5.6,7.0,77,0.00,,BKN150,0.00,VWS V14.00,2013-03-20 08:54:00,
2013-03-20 04:59:00,29.1,22.9,29.84,SSW,194,0.0,7.0,77,0.00,,BKN150,0.00,VWS V14.00,2013-03-20 08:59:00,
2013-03-20 05:04:00,28.9,22.8,29.84,SSW,194,0.0,0.0,78,0.00,,BKN150,0.00,VWS V14.00,2013-03-20 09:04:00,
2013-03-20 05:09:00,29.0,23.3,29.84,SSW,194,0.0,0.0,79,0.00,,BKN150,0.00,VWS V14.00,2013-03-20 09:09:00,
2013-03-20 05:14:00,28.7,23.4,29.84,SSW,194,0.0,0.0,80,0.00,,BKN150,0.00,VWS V14.00,2013-03-20 09:14:00,
2013-03-20 05:19:00,28.3,22.9,29.84,SSW,194,0.0,0.0,80,0.00,,BKN150,0.00,VWS V14.00,2013-03-20 09:19:00,
2013-03-20 05:24:00,28.6,23.0,29.84,SSW,194,0.0,0.0,79,0.00,,BKN150,0.00,VWS V14.00,2013-03-20 09:24:00,
2013-03-20 05:29:00,28.6,23.2,29.84,SSW,194,0.0,0.0,80,0.00,,BKN150,0.00,VWS V14.00,2013-03-20 09:29:00,
2013-03-20 05:34:00,28.4,23.1,29.85,SSW,194,0.0,0.0,80,0.00,,BKN150,0.00,VWS V14.00,2013-03-20 09:34:00,
2013-03-20 05:39:00,28.4,23.1,29.85,SSW,194,0.0,0.0,80,0.00,,BKN150,0.00,VWS V14.00,2013-03-20 09:39:00,
2013-03-20 05:44:00,28.2,23.2,29.85,SSW,194,0.0,0.0,81,0.00,,BKN150,0.00,VWS V14.00,2013-03-20 09:44:00,
2013-03-20 05:49:00,28.1,23.2,29.85,SSW,194,0.0,0.0,82,0.00,,BKN150,0.00,VWS V14.00,2013-03-20 09:49:00,
2013-03-20 05:54:00,27.9,23.2,29.85,SSW,194,0.0,0.0,82,0.00,,BKN150,0.00,VWS V14.00,2013-03-20 09:54:00,
2013-03-20 06:00:00,27.6,23.1,29.85,SSW,194,0.0,0.0,83,0.00,,BKN150,0.00,VWS V14.00,2013-03-20 10:00:00,
2013-03-20 06:05:00,27.2,22.9,29.85,SSW,194,0.0,0.0,84,0.00,,BKN100,0.00,VWS V14.00,2013-03-20 10:05:00,
2013-03-20 06:10:00,26.9,22.8,29.85,SSW,194,0.0,0.0,84,0.00,,BKN100,0.00,VWS V14.00,2013-03-20 10:10:00,
2013-03-20 06:15:00,26.6,23.0,29.85,SSW,194,0.0,0.0,86,0.00,,BKN100,0.00,VWS V14.00,2013-03-20 10:15:00,
2013-03-20 06:20:00,26.3,22.8,29.85,SSW,194,0.0,0.0,86,0.00,,BKN100,0.00,VWS V14.00,2013-03-20 10:20:00,
2013-03-20 06:25:00,26.0,22.8,29.85,SSW,194,0.0,0.0,87,0.00,,BKN100,0.00,VWS V14.00,2013-03-20 10:25:00,
2013-03-20 06:30:00,25.8,22.6,29.85,SSW,194,0.0,0.0,88,0.00,,BKN100,0.00,VWS V14.00,2013-03-20 10:30:00,
2013-03-20 06:35:00,25.6,22.6,29.85,SSW,194,0.0,0.0,88,0.00,,BKN100,0.00,VWS V14.00,2013-03-20 10:35:00,
2013-03-20 06:40:00,25.3,22.4,29.85,SSW,194,0.0,0.0,88,0.00,,BKN100,0.00,VWS V14.00,2013-03-20 10:40:00,
2013-03-20 06:45:00,25.1,22.4,29.85,SSW,194,0.0,0.0,89,0.00,,BKN100,0.00,VWS V14.00,2013-03-20 10:45:00,
2013-03-20 06:50:00,25.0,22.4,29.85,SSW,194,0.0,0.0,90,0.00,,BKN100,0.00,VWS V14.00,2013-03-20 10:50:00,
2013-03-20 06:55:00,24.7,22.2,29.85,SSW,194,0.0,0.0,90,0.00,,BKN100,0.00,VWS V14.00,2013-03-20 10:55:00,
2013-03-20 07:00:00,24.6,22.2,29.85,SSW,194,0.0,0.0,90,0.00,,BKN100,0.00,VWS V14.00,2013-03-20 11:00:00,
2013-03-20 07:05:00,24.5,22.2,29.85,SSW,194,3.4,3.4,91,0.00,,OVC140,0.00,VWS V14.00,2013-03-20 11:05:00,
2013-03-20 07:10:00,24.8,22.5,29.86,SSW,195,0.0,7.0,91,0.00,,OVC140,0.00,VWS V14.00,2013-03-20 11:10:00,
2013-03-20 07:16:00,25.3,22.9,29.86,SW,217,0.0,5.7,90,0.00,,OVC140,0.00,VWS V14.00,2013-03-20 11:16:00,
2013-03-20 07:21:00,25.7,23.0,29.86,SW,217,0.0,0.0,89,0.00,,OVC140,0.00,VWS V14.00,2013-03-20 11:21:00,
2013-03-20 07:26:00,26.5,23.1,29.85,SW,229,3.4,4.4,87,0.00,,OVC140,0.00,VWS V14.00,2013-03-20 11:26:00,
2013-03-20 07:31:00,27.4,23.4,29.86,SW,218,0.0,0.0,84,0.00,,OVC140,0.00,VWS V14.00,2013-03-20 11:31:00,
2013-03-20 07:37:00,28.0,23.8,29.85,WSW,239,5.3,5.9,84,0.00,,OVC140,0.00,VWS V14.00,2013-03-20 11:37:00,
2013-03-20 07:42:00,28.3,23.3,29.85,SW,214,0.0,0.0,81,0.00,,OVC140,0.00,VWS V14.00,2013-03-20 11:42:00,
2013-03-20 07:47:00,28.7,23.4,29.86,SW,214,0.0,0.0,80,0.00,,OVC140,0.00,VWS V14.00,2013-03-20 11:47:00,
2013-03-20 07:52:00,29.0,23.3,29.86,SW,214,0.0,0.0,79,0.00,,OVC140,0.00,VWS V14.00,2013-03-20 11:52:00,
2013-03-20 07:57:00,29.3,23.4,29.86,SSW,208,0.0,8.3,78,0.00,,OVC140,0.00,VWS V14.00,2013-03-20 11:57:00,
2013-03-20 08:02:00,29.5,23.2,29.86,SSW,208,0.0,0.0,77,0.00,,OVC140,0.00,VWS V14.00,2013-03-20 12:02:00,
2013-03-20 08:07:00,30.0,23.4,29.85,SW,222,0.0,9.1,76,0.00,,BKN130,0.00,VWS V14.00,2013-03-20 12:07:00,
2013-03-20 08:12:00,30.3,23.3,29.86,SW,228,0.0,6.6,75,0.00,,BKN130,0.00,VWS V14.00,2013-03-20 12:12:00,
2013-03-20 08:17:00,30.4,23.3,29.85,West,276,5.0,7.6,75,0.00,,BKN130,0.00,VWS V14.00,2013-03-20 12:17:00,
2013-03-20 08:22:00,30.7,23.5,29.86,SW,219,0.0,0.0,74,0.00,,BKN130,0.00,VWS V14.00,2013-03-20 12:22:00,
2013-03-20 08:27:00,30.8,23.8,29.86,SW,232,0.0,7.1,75,0.00,,BKN130,0.00,VWS V14.00,2013-03-20 12:27:00,
2013-03-20 08:32:00,30.8,23.7,29.86,West,267,0.0,8.9,75,0.00,,BKN130,0.00,VWS V14.00,2013-03-20 12:32:00,
2013-03-20 08:37:00,31.0,23.7,29.86,SW,221,4.3,9.8,74,0.00,,BKN130,0.00,VWS V14.00,2013-03-20 12:37:00,
2013-03-20 08:42:00,31.2,23.7,29.85,SW,221,0.0,0.0,73,0.00,,BKN130,0.00,VWS V14.00,2013-03-20 12:42:00,
2013-03-20 08:48:00,31.5,23.3,29.85,NNW,333,0.0,9.5,71,0.00,,BKN130,0.00,VWS V14.00,2013-03-20 12:48:00,
2013-03-20 08:53:00,31.6,23.7,29.85,WSW,246,0.0,0.0,72,0.00,,BKN130,0.00,VWS V14.00,2013-03-20 12:53:00,
2013-03-20 08:58:00,31.8,23.4,29.85,NW,311,0.0,15.1,71,0.00,,BKN130,0.00,VWS V14.00,2013-03-20 12:58:00,
2013-03-20 09:03:00,32.0,23.6,29.85,SSW,212,0.0,6.6,71,0.00,,BKN130,0.00,VWS V14.00,2013-03-20 13:03:00,
2013-03-20 09:08:00,32.2,23.4,29.85,WSW,253,4.1,13.7,70,0.00,,FEW110,0.00,VWS V14.00,2013-03-20 13:08:00,
2013-03-20 09:13:00,32.3,23.6,29.85,SW,233,0.0,9.4,70,0.00,,FEW110,0.00,VWS V14.00,2013-03-20 13:13:00,
2013-03-20 09:18:00,32.3,23.7,29.84,West,280,5.2,14.8,70,0.00,,FEW110,0.00,VWS V14.00,2013-03-20 13:18:00,
2013-03-20 09:23:00,32.4,23.7,29.85,West,278,0.0,17.7,70,0.00,,FEW110,0.00,VWS V14.00,2013-03-20 13:23:00,
2013-03-20 09:28:00,32.7,24.0,29.85,West,281,0.0,17.7,70,0.00,,FEW110,0.00,VWS V14.00,2013-03-20 13:28:00,
2013-03-20 09:33:00,32.9,24.3,29.85,West,263,0.0,0.0,70,0.00,,FEW110,0.00,VWS V14.00,2013-03-20 13:33:00,
2013-03-20 09:38:00,33.0,24.5,29.85,ESE,110,4.9,14.1,70,0.00,,FEW110,0.00,VWS V14.00,2013-03-20 13:38:00,
2013-03-20 09:43:00,33.0,24.5,29.84,West,270,0.0,0.0,70,0.00,,FEW110,0.00,VWS V14.00,2013-03-20 13:43:00,
2013-03-20 09:48:00,33.0,23.3,29.85,NW,321,0.0,10.7,67,0.00,,FEW110,0.00,VWS V14.00,2013-03-20 13:48:00,
2013-03-20 09:53:00,33.0,23.2,29.85,NW,326,3.2,18.0,67,0.00,,FEW110,0.00,VWS V14.00,2013-03-20 13:53:00,
2013-03-20 09:58:00,33.3,24.0,29.85,WSW,238,5.7,18.0,68,0.00,,FEW110,0.00,VWS V14.00,2013-03-20 13:58:00,
2013-03-20 10:04:00,33.3,23.0,29.84,NNW,328,0.0,10.0,66,0.00,,FEW110,0.00,VWS V14.00,2013-03-20 14:04:00,
2013-03-20 10:09:00,33.2,22.7,29.85,East,86,8.6,26.2,65,0.00,,OVC200,0.00,VWS V14.00,2013-03-20 14:09:00,
2013-03-20 10:14:00,33.5,22.3,29.85,SSW,194,9.8,17.8,63,0.00,,OVC200,0.00,VWS V14.00,2013-03-20 14:14:00,
2013-03-20 10:19:00,33.7,22.3,29.85,NNW,329,0.0,17.8,62,0.00,,OVC200,0.00,VWS V14.00,2013-03-20 14:19:00,
2013-03-20 10:24:00,34.0,22.7,29.85,East,83,0.0,11.2,63,0.00,,OVC200,0.00,VWS V14.00,2013-03-20 14:24:00,
2013-03-20 10:29:00,34.2,22.3,29.85,North,359,3.2,14.8,61,0.00,,OVC200,0.00,VWS V14.00,2013-03-20 14:29:00,
2013-03-20 10:34:00,34.4,22.1,29.85,West,259,0.0,15.9,60,0.00,,OVC200,0.00,VWS V14.00,2013-03-20 14:34:00,
2013-03-20 10:39:00,34.0,21.8,29.85,WSW,246,0.0,16.9,60,0.00,,OVC200,0.00,VWS V14.00,2013-03-20 14:39:00,
2013-03-20 10:44:00,34.1,22.3,29.85,North,3,0.0,10.2,62,0.00,,OVC200,0.00,VWS V14.00,2013-03-20 14:44:00,
2013-03-20 10:50:00,34.3,22.6,29.86,West,274,0.0,13.5,62,0.00,,OVC200,0.00,VWS V14.00,2013-03-20 14:50:00,
2013-03-20 10:55:00,34.5,23.3,29.86,NW,315,4.3,13.0,63,0.00,,OVC200,0.00,VWS V14.00,2013-03-20 14:55:00,
2013-03-20 11:00:00,34.4,22.9,29.85,West,260,0.0,16.0,62,0.00,,OVC200,0.00,VWS V14.00,2013-03-20 15:00:00,
2013-03-20 11:05:00,34.3,22.4,29.86,SW,236,0.0,8.5,61,0.00,,OVC200,0.00,VWS V14.00,2013-03-20 15:05:00,
2013-03-20 11:10:00,34.1,22.8,29.86,South,174,9.0,17.8,63,0.00,,OVC200,0.00,VWS V14.00,2013-03-20 15:10:00,
2013-03-20 11:15:00,34.4,23.6,29.86,WSW,242,0.0,5.2,64,0.00,,OVC200,0.00,VWS V14.00,2013-03-20 15:15:00,
2013-03-20 11:20:00,34.7,23.5,29.86,SSW,208,0.0,10.1,63,0.00,,OVC200,0.00,VWS V14.00,2013-03-20 15:20:00,
2013-03-20 11:25:00,34.9,23.2,29.86,WSW,255,0.0,10.9,62,0.00,,OVC200,0.00,VWS V14.00,2013-03-20 15:25:00,
2013-03-20 11:30:00,34.7,22.7,29.86,North,7,5.1,14.9,61,0.00,,OVC200,0.00,VWS V14.00,2013-03-20 15:30:00,
2013-03-20 11:35:00,34.9,23.0,29.86,SSW,208,0.0,8.5,61,0.00,,OVC200,0.00,VWS V14.00,2013-03-20 15:35:00,
2013-03-20 11:40:00,34.9,23.7,29.86,West,260,0.0,10.4,63,0.00,,OVC200,0.00,VWS V14.00,2013-03-20 15:40:00,
2013-03-20 11:45:00,34.7,23.4,29.87,SSW,198,0.0,10.7,63,0.00,,OVC200,0.00,VWS V14.00,2013-03-20 15:45:00,
2013-03-20 11:50:00,34.7,23.2,29.86,North,0,0.0,10.7,62,0.00,,OVC200,0.00,VWS V14.00,2013-03-20 15:50:00,
2013-03-20 11:56:00,35.1,23.4,29.86,North,8,0.0,8.0,62,0.00,,OVC200,0.00,VWS V14.00,2013-03-20 15:56:00,
2013-03-20 12:00:00,35.3,23.9,29.86,WNW,300,4.7,15.2,63,0.00,,OVC200,0.00,VWS V14.00,2013-03-20 16:00:00,
2013-03-20 12:06:00,35.5,23.0,29.86,NNW,342,0.0,15.8,60,0.00,,OVC200,0.00,VWS V14.00,2013-03-20 16:06:00,
2013-03-20 12:11:00,36.2,23.8,29.85,South,181,0.0,0.0,60,0.00,,OVC200,0.00,VWS V14.00,2013-03-20 16:11:00,
2013-03-20 12:16:00,36.4,23.3,29.85,West,271,0.0,9.2,59,0.00,,OVC200,0.00,VWS V14.00,2013-03-20 16:16:00,
2013-03-20 12:21:00,36.8,23.8,29.85,ENE,70,0.0,3.4,59,0.00,,OVC200,0.00,VWS V14.00,2013-03-20 16:21:00,
2013-03-20 12:26:00,37.3,24.4,29.85,SW,235,4.5,10.4,59,0.00,,OVC200,0.00,VWS V14.00,2013-03-20 16:26:00,
2013-03-20 12:31:00,37.1,23.1,29.85,NW,322,4.3,4.3,57,0.00,,OVC200,0.00,VWS V14.00,2013-03-20 16:31:00,
2013-03-20 12:37:00,37.1,24.7,29.84,NW,319,0.0,12.1,60,0.00,,OVC200,0.00,VWS V14.00,2013-03-20 16:37:00,
2013-03-20 12:42:00,37.1,23.1,29.84,West,266,0.0,4.7,57,0.00,,OVC200,0.00,VWS V14.00,2013-03-20 16:42:00,
2013-03-20 12:47:00,37.4,23.0,29.84,North,353,0.0,11.2,56,0.00,,OVC200,0.00,VWS V14.00,2013-03-20 16:47:00,
2013-03-20 12:52:00,37.8,23.4,29.84,NNW,343,0.0,4.2,56,0.00,,OVC200,0.00,VWS V14.00,2013-03-20 16:52:00,
2013-03-20 12:58:00,38.1,24.1,29.84,SSW,198,0.0,13.7,57,0.00,,OVC200,0.00,VWS V14.00,2013-03-20 16:58:00,
2013-03-20 13:03:00,38.0,22.9,29.84,NE,48,0.0,4.7,54,0.00,,OVC200,0.00,VWS V14.00,2013-03-20 17:03:00,
2013-03-20 13:08:00,37.8,22.4,29.84,WSW,250,0.0,9.9,54,0.00,,BKN200,0.00,VWS V14.00,2013-03-20 17:08:00,
2013-03-20 13:13:00,37.7,23.1,29.83,WSW,252,5.5,9.8,55,0.00,,BKN200,0.00,VWS V14.00,2013-03-20 17:13:00,
2013-03-20 13:18:00,38.0,22.0,29.83,West,259,0.0,12.5,52,0.00,,BKN200,0.00,VWS V14.00,2013-03-20 17:18:00,
2013-03-20 13:23:00,38.1,22.6,29.82,NNE,21,0.0,6.4,53,0.00,,BKN200,0.00,VWS V14.00,2013-03-20 17:23:00,
2013-03-20 13:28:00,38.2,23.2,29.82,SSW,211,4.3,10.6,54,0.00,,BKN200,0.00,VWS V14.00,2013-03-20 17:28:00,
2013-03-20 13:33:00,38.4,22.9,29.82,NW,326,3.5,9.7,53,0.00,,BKN200,0.00,VWS V14.00,2013-03-20 17:33:00,
2013-03-20 13:38:00,38.7,22.2,29.82,West,280,0.0,9.7,51,0.00,,BKN200,0.00,VWS V14.00,2013-03-20 17:38:00,
2013-03-20 13:43:00,38.9,22.9,29.82,West,269,0.0,12.2,52,0.00,,BKN200,0.00,VWS V14.00,2013-03-20 17:43:00,
2013-03-20 13:48:00,39.6,23.4,29.82,SSW,197,0.0,12.2,52,0.00,,BKN200,0.00,VWS V14.00,2013-03-20 17:48:00,
2013-03-20 13:53:00,39.9,22.3,29.82,NNW,328,0.0,8.9,49,0.00,,BKN200,0.00,VWS V14.00,2013-03-20 17:53:00,
2013-03-20 13:58:00,39.8,23.5,29.81,SSW,195,0.0,13.4,52,0.00,,BKN200,0.00,VWS V14.00,2013-03-20 17:58:00,
2013-03-20 14:03:00,39.7,22.5,29.81,SW,222,5.2,5.2,50,0.00,,BKN200,0.00,VWS V14.00,2013-03-20 18:03:00,
2013-03-20 14:08:00,40.0,24.1,29.81,SSW,210,3.4,17.4,53,0.00,,BKN200,0.00,VWS V14.00,2013-03-20 18:08:00,
2013-03-20 14:13:00,39.9,22.2,29.81,WSW,256,0.0,13.5,49,0.00,,BKN200,0.00,VWS V14.00,2013-03-20 18:13:00,
2013-03-20 14:18:00,40.0,22.5,29.80,WSW,256,0.0,13.5,49,0.00,,BKN200,0.00,VWS V14.00,2013-03-20 18:18:00,
2013-03-20 14:24:00,40.3,23.3,29.80,SSE,150,5.7,12.2,50,0.00,,BKN200,0.00,VWS V14.00,2013-03-20 18:24:00,
2013-03-20 14:29:00,40.6,24.1,29.80,SSW,198,7.1,12.2,51,0.00,,BKN200,0.00,VWS V14.00,2013-03-20 18:29:00,
2013-03-20 14:34:00,40.3,21.3,29.80,SSW,204,7.7,9.1,46,0.00,,BKN200,0.00,VWS V14.00,2013-03-20 18:34:00,
2013-03-20 14:39:00,40.0,20.8,29.79,West,273,0.0,12.9,46,0.00,,BKN200,0.00,VWS V14.00,2013-03-20 18:39:00,
2013-03-20 14:44:00,40.1,21.0,29.79,NNE,30,0.0,13.0,46,0.00,,BKN200,0.00,VWS V14.00,2013-03-20 18:44:00,
2013-03-20 14:49:00,40.3,21.7,29.79,SW,224,0.0,13.0,47,0.00,,BKN200,0.00,VWS V14.00,2013-03-20 18:49:00,
2013-03-20 14:54:00,40.5,21.4,29.80,SW,235,3.0,13.7,46,0.00,,BKN200,0.00,VWS V14.00,2013-03-20 18:54:00,
2013-03-20 14:59:00,41.1,25.3,29.79,South,181,0.0,13.7,53,0.00,,BKN200,0.00,VWS V14.00,2013-03-20 18:59:00,
2013-03-20 15:04:00,41.3,22.6,29.79,WSW,248,7.5,9.3,47,0.00,,BKN250,0.00,VWS V14.00,2013-03-20 19:04:00,
2013-03-20 15:09:00,41.3,24.1,29.79,West,266,10.3,13.8,50,0.00,,BKN250,0.00,VWS V14.00,2013-03-20 19:09:00,
2013-03-20 15:14:00,41.7,24.1,29.79,SW,235,0.0,8.7,49,0.00,,BKN250,0.00,VWS V14.00,2013-03-20 19:14:00,
2013-03-20 15:19:00,41.3,23.6,29.79,SSW,201,5.5,8.7,49,0.00,,BKN250,0.00,VWS V14.00,2013-03-20 19:19:00,
2013-03-20 15:25:00,41.1,23.6,29.79,SSE,153,0.0,12.1,49,0.00,,BKN250,0.00,VWS V14.00,2013-03-20 19:25:00,
2013-03-20 15:30:00,40.7,24.2,29.79,SSW,211,0.0,12.1,51,0.00,,BKN250,0.00,VWS V14.00,2013-03-20 19:30:00,
2013-03-20 15:35:00,41.4,23.4,29.79,SW,218,0.0,8.1,48,0.00,,BKN250,0.00,VWS V14.00,2013-03-20 19:35:00,
2013-03-20 15:40:00,41.6,23.4,29.79,West,276,3.3,13.4,48,0.00,,BKN250,0.00,VWS V14.00,2013-03-20 19:40:00,
2013-03-20 15:45:00,41.2,23.8,29.79,NNW,345,0.0,9.8,50,0.00,,BKN250,0.00,VWS V14.00,2013-03-20 19:45:00,
2013-03-20 15:50:00,41.5,22.7,29.79,North,3,0.0,9.8,47,0.00,,BKN250,0.00,VWS V14.00,2013-03-20 19:50:00,
2013-03-20 15:55:00,42.1,24.1,29.79,NW,322,0.0,8.8,49,0.00,,BKN250,0.00,VWS V14.00,2013-03-20 19:55:00,
2013-03-20 16:00:00,41.6,21.5,29.80,WSW,255,11.9,14.7,44,0.00,,BKN250,0.00,VWS V14.00,2013-03-20 20:00:00,
2013-03-20 16:05:00,41.1,22.9,29.80,SW,228,0.0,9.8,48,0.00,,BKN250,0.00,VWS V14.00,2013-03-20 20:05:00,
2013-03-20 16:10:00,40.8,21.9,29.79,SW,232,4.2,9.8,47,0.00,,BKN250,0.00,VWS V14.00,2013-03-20 20:10:00,
2013-03-20 16:15:00,41.0,22.3,29.79,WSW,242,7.1,11.1,47,0.00,,BKN250,0.00,VWS V14.00,2013-03-20 20:15:00,
2013-03-20 16:20:00,40.7,24.0,29.79,SSW,195,0.0,11.1,51,0.00,,BKN250,0.00,VWS V14.00,2013-03-20 20:20:00,
2013-03-20 16:25:00,40.7,23.3,29.79,SSW,201,0.0,10.4,50,0.00,,BKN250,0.00,VWS V14.00,2013-03-20 20:25:00,
2013-03-20 16:30:00,41.0,23.6,29.79,SSW,201,0.0,10.4,50,0.00,,BKN250,0.00,VWS V14.00,2013-03-20 20:30:00,
2013-03-20 16:35:00,40.6,22.7,29.79,WSW,249,0.0,12.3,48,0.00,,BKN250,0.00,VWS V14.00,2013-03-20 20:35:00,
2013-03-20 16:40:00,40.2,22.8,29.80,SW,236,0.0,0.0,50,0.00,,BKN250,0.00,VWS V14.00,2013-03-20 20:40:00,
2013-03-20 16:46:00,39.6,23.3,29.79,West,280,4.7,14.9,52,0.00,,BKN250,0.00,VWS V14.00,2013-03-20 20:46:00,
2013-03-20 16:51:00,39.3,24.8,29.80,NNE,27,0.0,0.0,56,0.00,,BKN250,0.00,VWS V14.00,2013-03-20 20:51:00,
2013-03-20 16:56:00,39.2,24.3,29.79,SSW,198,0.0,9.9,55,0.00,,BKN250,0.00,VWS V14.00,2013-03-20 20:56:00,
2013-03-20 17:01:00,39.5,24.0,29.79,SSW,198,0.0,0.0,53,0.00,,BKN250,0.00,VWS V14.00,2013-03-20 21:01:00,
2013-03-20 17:06:00,39.6,24.5,29.79,North,6,0.0,3.4,54,0.00,,BKN250,0.00,VWS V14.00,2013-03-20 21:06:00,
2013-03-20 17:12:00,39.5,24.8,29.79,North,6,0.0,0.0,55,0.00,,BKN250,0.00,VWS V14.00,2013-03-20 21:12:00,
2013-03-20 17:17:00,39.5,24.3,29.79,North,6,0.0,0.0,54,0.00,,BKN250,0.00,VWS V14.00,2013-03-20 21:17:00,
2013-03-20 17:22:00,39.7,24.4,29.79,North,6,0.0,0.0,54,0.00,,BKN250,0.00,VWS V14.00,2013-03-20 21:22:00,
2013-03-20 17:27:00,39.7,24.5,29.79,SW,221,0.0,5.7,54,0.00,,BKN250,0.00,VWS V14.00,2013-03-20 21:27:00,
2013-03-20 17:32:00,39.6,23.0,29.79,East,82,0.0,0.0,51,0.00,,BKN250,0.00,VWS V14.00,2013-03-20 21:32:00,
2013-03-20 17:37:00,39.7,23.4,29.79,East,82,0.0,0.0,52,0.00,,BKN250,0.00,VWS V14.00,2013-03-20 21:37:00,
2013-03-20 17:42:00,39.9,24.8,29.79,East,82,0.0,0.0,54,0.00,,BKN250,0.00,VWS V14.00,2013-03-20 21:42:00,
2013-03-20 17:47:00,39.9,24.7,29.78,East,82,0.0,0.0,54,0.00,,BKN250,0.00,VWS V14.00,2013-03-20 21:47:00,
2013-03-20 17:53:00,40.0,25.2,29.78,East,82,0.0,0.0,55,0.00,,BKN250,0.00,VWS V14.00,2013-03-20 21:53:00,
2013-03-20 17:58:00,40.0,25.1,29.79,East,82,0.0,0.0,55,0.00,,BKN250,0.00,VWS V14.00,2013-03-20 21:58:00,
2013-03-20 18:03:00,39.9,28.1,29.79,East,82,0.0,0.0,62,0.00,,BKN250,0.00,VWS V14.00,2013-03-20 22:03:00,
2013-03-20 18:08:00,39.8,26.3,29.79,East,82,0.0,0.0,58,0.00,,SCT200,0.00,VWS V14.00,2013-03-20 22:08:00,
2013-03-20 18:13:00,39.6,27.3,29.78,East,82,0.0,0.0,61,0.00,,SCT200,0.00,VWS V14.00,2013-03-20 22:13:00,
2013-03-20 18:18:00,39.4,26.7,29.79,East,82,0.0,3.2,60,0.00,,SCT200,0.00,VWS V14.00,2013-03-20 22:18:00,
2013-03-20 18:23:00,39.3,24.6,29.79,East,82,0.0,0.0,55,0.00,,SCT200,0.00,VWS V14.00,2013-03-20 22:23:00,
2013-03-20 18:28:00,39.3,24.0,29.79,East,82,0.0,0.0,54,0.00,,SCT200,0.00,VWS V14.00,2013-03-20 22:28:00,
2013-03-20 18:33:00,39.3,26.7,29.79,East,82,0.0,0.0,60,0.00,,SCT200,0.00,VWS V14.00,2013-03-20 22:33:00,
2013-03-20 18:38:00,39.1,23.4,29.79,SW,214,0.0,7.0,53,0.00,,SCT200,0.00,VWS V14.00,2013-03-20 22:38:00,
2013-03-20 18:43:00,39.3,22.3,29.79,WSW,255,0.0,7.2,50,0.00,,SCT200,0.00,VWS V14.00,2013-03-20 22:43:00,
2013-03-20 18:48:00,39.5,22.7,29.79,WSW,255,0.0,7.2,51,0.00,,SCT200,0.00,VWS V14.00,2013-03-20 22:48:00,
2013-03-20 18:53:00,39.6,23.3,29.79,WSW,255,0.0,0.0,52,0.00,,SCT200,0.00,VWS V14.00,2013-03-20 22:53:00,
2013-03-20 18:58:00,39.4,23.9,29.79,WSW,255,0.0,1.9,53,0.00,,SCT200,0.00,VWS V14.00,2013-03-20 22:58:00,
2013-03-20 19:04:00,39.1,24.1,29.80,WSW,255,0.0,0.0,54,0.00,,SCT200,0.00,VWS V14.00,2013-03-20 23:04:00,
2013-03-20 19:09:00,38.8,26.2,29.80,WSW,255,0.0,0.0,60,0.00,,FEW085,0.00,VWS V14.00,2013-03-20 23:09:00,
2013-03-20 19:14:00,38.4,25.0,29.80,WSW,255,0.0,0.0,58,0.00,,FEW085,0.00,VWS V14.00,2013-03-20 23:14:00,
2013-03-20 19:19:00,38.1,26.8,29.80,WSW,255,0.0,0.0,64,0.00,,FEW085,0.00,VWS V14.00,2013-03-20 23:19:00,
2013-03-20 19:24:00,37.7,25.8,29.80,WSW,255,0.0,0.0,62,0.00,,FEW085,0.00,VWS V14.00,2013-03-20 23:24:00,
2013-03-20 19:29:00,37.4,24.0,29.80,WSW,255,0.0,0.0,58,0.00,,FEW085,0.00,VWS V14.00,2013-03-20 23:29:00,
2013-03-20 19:34:00,37.6,22.7,29.80,NW,314,0.0,0.0,54,0.00,,FEW085,0.00,VWS V14.00,2013-03-20 23:34:00,
2013-03-20 19:39:00,38.0,22.7,29.80,WSW,255,4.2,7.5,54,0.00,,FEW085,0.00,VWS V14.00,2013-03-20 23:39:00,
2013-03-20 19:44:00,38.3,22.7,29.80,WSW,249,0.0,11.9,53,0.00,,FEW085,0.00,VWS V14.00,2013-03-20 23:44:00,
2013-03-20 19:49:00,38.5,22.8,29.80,West,260,0.0,11.9,53,0.00,,FEW085,0.00,VWS V14.00,2013-03-20 23:49:00,
2013-03-20 19:54:00,38.3,25.2,29.80,West,260,0.0,0.0,59,0.00,,FEW085,0.00,VWS V14.00,2013-03-20 23:54:00,
2013-03-20 19:59:00,38.2,22.8,29.80,West,260,0.0,0.0,54,0.00,,FEW085,0.00,VWS V14.00,2013-03-20 23:59:00,
2013-03-20 20:04:00,38.3,23.0,29.80,WSW,255,0.0,0.0,54,0.00,,FEW085,0.00,VWS V14.00,2013-03-21 00:04:00,
2013-03-20 20:09:00,38.5,22.5,29.80,WSW,245,0.0,4.7,52,0.00,,FEW085,0.00,VWS V14.00,2013-03-21 00:09:00,
2013-03-20 20:14:00,38.5,22.3,29.80,WSW,245,0.0,0.0,52,0.00,,FEW085,0.00,VWS V14.00,2013-03-21 00:14:00,
2013-03-20 20:19:00,38.2,26.8,29.80,WSW,245,0.0,0.0,63,0.00,,FEW085,0.00,VWS V14.00,2013-03-21 00:19:00,
2013-03-20 20:24:00,37.4,26.0,29.81,WSW,245,0.0,0.0,63,0.00,,FEW085,0.00,VWS V14.00,2013-03-21 00:24:00,
2013-03-20 20:29:00,36.7,25.6,29.81,WSW,245,0.0,0.0,64,0.00,,FEW085,0.00,VWS V14.00,2013-03-21 00:29:00,
2013-03-20 20:35:00,35.9,26.0,29.81,WSW,245,0.0,0.0,67,0.00,,FEW085,0.00,VWS V14.00,2013-03-21 00:35:00,
2013-03-20 20:39:00,35.3,26.3,29.81,WSW,245,0.0,0.0,70,0.00,,FEW085,0.00,VWS V14.00,2013-03-21 00:39:00,
2013-03-20 20:45:00,34.6,25.7,29.81,WSW,245,0.0,0.0,70,0.00,,FEW085,0.00,VWS V14.00,2013-03-21 00:45:00,
2013-03-20 20:50:00,34.0,26.5,29.81,WSW,245,0.0,0.0,74,0.00,,FEW085,0.00,VWS V14.00,2013-03-21 00:50:00,
2013-03-20 20:55:00,33.6,25.9,29.80,WSW,245,0.0,0.0,73,0.00,,FEW085,0.00,VWS V14.00,2013-03-21 00:55:00,
2013-03-20 21:00:00,33.2,26.2,29.81,WSW,245,0.0,0.0,75,0.00,,FEW085,0.00,VWS V14.00,2013-03-21 01:00:00,
2013-03-20 21:05:00,32.8,26.5,29.82,WSW,245,0.0,0.0,78,0.00,,FEW085,0.00,VWS V14.00,2013-03-21 01:05:00,
2013-03-20 21:10:00,32.5,26.3,29.82,WSW,245,0.0,0.0,78,0.00,,FEW085,0.00,VWS V14.00,2013-03-21 01:10:00,
2013-03-20 21:15:00,32.3,26.2,29.82,WSW,245,0.0,0.0,78,0.00,,FEW085,0.00,VWS V14.00,2013-03-21 01:15:00,
2013-03-20 21:20:00,32.0,26.1,29.82,WSW,245,0.0,0.0,79,0.00,,FEW085,0.00,VWS V14.00,2013-03-21 01:20:00,
2013-03-20 21:26:00,31.8,26.5,29.82,WSW,245,0.0,0.0,80,0.00,,FEW085,0.00,VWS V14.00,2013-03-21 01:26:00,
2013-03-20 21:30:00,31.6,26.5,29.82,WSW,245,0.0,0.0,81,0.00,,FEW085,0.00,VWS V14.00,2013-03-21 01:30:00,
2013-03-20 21:35:00,31.5,26.5,29.82,WSW,245,0.0,0.0,81,0.00,,FEW085,0.00,VWS V14.00,2013-03-21 01:35:00,
2013-03-20 21:40:00,31.3,26.2,29.82,WSW,245,0.0,0.0,81,0.00,,FEW085,0.00,VWS V14.00,2013-03-21 01:40:00,
2013-03-20 21:46:00,31.2,26.3,29.82,WSW,245,0.0,0.0,82,0.00,,FEW085,0.00,VWS V14.00,2013-03-21 01:46:00,
2013-03-20 21:51:00,31.1,26.0,29.82,WSW,245,0.0,0.0,81,0.00,,FEW085,0.00,VWS V14.00,2013-03-21 01:51:00,
2013-03-20 21:56:00,31.1,26.2,29.82,WSW,245,0.0,0.0,82,0.00,,FEW085,0.00,VWS V14.00,2013-03-21 01:56:00,
2013-03-20 22:01:00,31.2,26.7,29.82,WSW,245,0.0,0.0,83,0.00,,FEW085,0.00,VWS V14.00,2013-03-21 02:01:00,
2013-03-20 22:06:00,31.2,26.8,29.83,WSW,245,0.0,0.0,84,0.00,,CLR,0.00,VWS V14.00,2013-03-21 02:06:00,
2013-03-20 22:12:00,31.1,26.4,29.83,WSW,245,0.0,0.0,82,0.00,,CLR,0.00,VWS V14.00,2013-03-21 02:12:00,
2013-03-20 22:17:00,31.1,26.5,29.83,WSW,245,0.0,0.0,83,0.00,,CLR,0.00,VWS V14.00,2013-03-21 02:17:00,
2013-03-20 22:22:00,31.0,26.7,29.83,WSW,245,0.0,0.0,84,0.00,,CLR,0.00,VWS V14.00,2013-03-21 02:22:00,
2013-03-20 22:27:00,31.0,26.9,29.83,WSW,245,0.0,0.0,85,0.00,,CLR,0.00,VWS V14.00,2013-03-21 02:27:00,
2013-03-20 22:32:00,30.9,26.7,29.83,WSW,245,0.0,0.0,84,0.00,,CLR,0.00,VWS V14.00,2013-03-21 02:32:00,
2013-03-20 22:37:00,30.8,26.6,29.83,WSW,245,0.0,0.0,84,0.00,,CLR,0.00,VWS V14.00,2013-03-21 02:37:00,
2013-03-20 22:42:00,30.8,26.6,29.83,WSW,245,0.0,0.0,84,0.00,,CLR,0.00,VWS V14.00,2013-03-21 02:42:00,
2013-03-20 22:47:00,30.8,27.1,29.83,WSW,245,0.0,0.0,86,0.00,,CLR,0.00,VWS V14.00,2013-03-21 02:47:00,
2013-03-20 22:52:00,30.8,27.0,29.83,WSW,245,0.0,0.0,86,0.00,,CLR,0.00,VWS V14.00,2013-03-21 02:52:00,
2013-03-20 22:57:00,31.0,27.2,29.83,WSW,245,0.0,0.0,86,0.00,,CLR,0.00,VWS V14.00,2013-03-21 02:57:00,
2013-03-20 22:59:00,31.7,28.3,29.84,WSW,245,0.0,0.0,87,0.00,,FEW085,0.00,VWS V14.00,2013-03-21 02:59:00,
2013-03-20 23:00:00,31.7,28.3,29.84,WSW,245,0.0,0.0,87,0.00,,FEW085,0.00,VWS V14.00,2013-03-21 03:00:00,
2013-03-20 23:01:00,31.7,28.4,29.84,WSW,245,0.0,0.0,87,0.00,,FEW085,0.00,VWS V14.00,2013-03-21 03:01:00,
2013-03-20 23:02:00,31.2,27.6,29.83,WSW,245,0.0,0.0,86,0.00,,CLR,0.00,VWS V14.00,2013-03-21 03:02:00,
2013-03-20 23:03:00,31.7,28.3,29.84,WSW,245,0.0,0.0,87,0.00,,FEW080,0.00,VWS V14.00,2013-03-21 03:03:00,
2013-03-20 23:04:00,31.8,28.4,29.84,WSW,245,0.0,0.0,87,0.00,,FEW080,0.00,VWS V14.00,2013-03-21 03:04:00,
2013-03-20 23:05:00,31.8,28.4,29.84,WSW,245,0.0,0.0,87,0.00,,FEW080,0.00,VWS V14.00,2013-03-21 03:05:00,
2013-03-20 23:06:00,31.8,28.5,29.84,WSW,245,0.0,0.0,87,0.00,,FEW080,0.00,VWS V14.00,2013-03-21 03:06:00,
2013-03-20 23:07:00,31.8,28.5,29.84,WSW,245,0.0,0.0,87,0.00,,FEW080,0.00,VWS V14.00,2013-03-21 03:07:00,
2013-03-20 23:08:00,31.3,27.8,29.83,WSW,245,0.0,0.0,87,0.00,,FEW085,0.00,VWS V14.00,2013-03-21 03:08:00,
2013-03-20 23:09:00,31.9,28.5,29.84,WSW,245,0.0,0.0,87,0.00,,FEW080,0.00,VWS V14.00,2013-03-21 03:09:00,
2013-03-20 23:10:00,31.9,28.5,29.84,WSW,245,0.0,0.0,87,0.00,,FEW080,0.00,VWS V14.00,2013-03-21 03:10:00,
2013-03-20 23:11:00,31.9,28.6,29.84,WSW,245,0.0,0.0,87,0.00,,FEW080,0.00,VWS V14.00,2013-03-21 03:11:00,
2013-03-20 23:12:00,32.0,28.7,29.84,WSW,245,0.0,0.0,88,0.00,,FEW080,0.00,VWS V14.00,2013-03-21 03:12:00,
2013-03-20 23:13:00,31.4,27.9,29.83,WSW,245,0.0,0.0,87,0.00,,FEW085,0.00,VWS V14.00,2013-03-21 03:13:00,
2013-03-20 23:14:00,32.0,28.7,29.84,WSW,245,0.0,0.0,88,0.00,,FEW080,0.00,VWS V14.00,2013-03-21 03:14:00,
2013-03-20 23:18:00,31.5,28.0,29.83,WSW,245,0.0,0.0,87,0.00,,FEW085,0.00,VWS V14.00,2013-03-21 03:18:00,
2013-03-20 23:19:00,32.1,29.0,29.84,WSW,245,0.0,0.0,88,0.00,,FEW080,0.00,VWS V14.00,2013-03-21 03:19:00,
2013-03-20 23:21:00,32.1,29.0,29.84,WSW,245,0.0,0.0,88,0.00,,FEW080,0.00,VWS V14.00,2013-03-21 03:21:00,
2013-03-20 23:23:00,31.5,28.0,29.83,WSW,245,0.0,0.0,87,0.00,,FEW085,0.00,VWS V14.00,2013-03-21 03:23:00,
2013-03-20 23:28:00,31.5,28.0,29.83,WSW,245,0.0,0.0,87,0.00,,FEW085,0.00,VWS V14.00,2013-03-21 03:28:00,
2013-03-20 23:33:00,31.5,28.1,29.83,WSW,245,0.0,0.0,87,0.00,,FEW085,0.00,VWS V14.00,2013-03-21 03:33:00,
2013-03-20 23:38:00,31.5,28.2,29.83,WSW,245,0.0,0.0,88,0.00,,FEW085,0.00,VWS V14.00,2013-03-21 03:38:00,
2013-03-20 23:43:00,31.6,28.3,29.83,WSW,245,0.0,0.0,88,0.00,,FEW085,0.00,VWS V14.00,2013-03-21 03:43:00,
2013-03-20 23:48:00,31.6,28.3,29.84,WSW,245,0.0,0.0,87,0.00,,FEW085,0.00,VWS V14.00,2013-03-21 03:48:00,
2013-03-20 23:53:00,31.7,28.5,29.84,WSW,245,0.0,0.0,88,0.00,,FEW085,0.00,VWS V14.00,2013-03-21 03:53:00,
2013-03-20 23:58:00,31.7,28.3,29.84,WSW,245,0.0,0.0,87,0.00,,FEW085,0.00,VWS V14.00,2013-03-21 03:58:00,